Terminal Aerodrome Forecast
Issued by NWS Sioux Falls, SD

Home | Current Version | Previous Version | Text Only | Print | Product List | Glossary On
Versions: 1 2 3 4 5 6 7 8 9 10 11 12 13 14
000
FTUS43 KFSD 202300
TAFFSD
TAF
KFSD 202333Z 2100/2124 15005KT P6SM FEW100 SCT250
     FM210500 VRB03KT P6SM SCT070 BKN120
      TEMPO 2105/2107 SHRA BKN070
     FM210800 35012G18KT P6SM SKC
     FM211400 35018G26KT P6SM SKC=

USA.gov is the U.S. government's official web portal to all federal, state and local government web resources and services.